首页
METAR-TAF:

METAR-TAF

机场 :

上海浦东国际机场

上海 / 浦东, 中华人民共和国

纬度: 31-07N, 经度: 121-46E, 海拔: 4米

当前天气观测

该预报发布于28分钟前的17:30 UTC
风速4节,风向东南
温度 20°C
湿度 88%
气压 1008 hPa
能见度10公里或以上
1500米以下无云,无积雨云

METAR: ZSPD 231730Z 14002MPS CAVOK 20/18 Q1008 NOSIG

时间: 01:58 (17:58 UTC)

预报

该预报发布于2小时和33分钟前的15:25 UTC
预报有效从23日的 18点(UTC)到 24日的 18点(UTC)
风速8节,风向东转东南
能見度: 6000
多云层高于1000英尺

TAF: ZSPD 231525Z 2318/2418 12004MPS 6000 BKN010 TX26/2406Z TN20/2321Z

超过4000个机场的气象观测和天气预报(METAR&TAF报告)。

可查询的气象台以黄色和红色小点在地图上表示。

将鼠标移到小点上方,可查看气象台名称。

然后点击查看天气观测和预报。

如需切换地图:点击带黑十字的绿色按钮放大地图;点击带横线的绿色按钮缩小地图;或者点击绿色箭头查看邻近地区的地图。


METAR-TAF: